createdAt,value
2023-03-24T00:01:09.688Z,25.67
2023-03-24T00:03:38.109Z,26.10
2023-03-24T00:06:07.365Z,26.30
2023-03-24T00:08:37.024Z,27.88
2023-03-24T00:11:07.504Z,26.90
2023-03-24T00:13:39.084Z,26.80
2023-03-24T00:16:12.433Z,28.20
2023-03-24T00:18:40.830Z,27.85
2023-03-24T00:21:09.186Z,27.00
2023-03-24T00:23:36.804Z,29.15
2023-03-24T00:26:09.012Z,27.23
2023-03-24T00:28:37.344Z,26.40
2023-03-24T00:31:06.522Z,25.70
2023-03-24T00:33:35.275Z,24.67
2023-03-24T00:36:05.704Z,23.40
2023-03-24T00:38:34.911Z,23.02
2023-03-24T00:41:02.626Z,24.55
2023-03-24T00:43:30.829Z,23.15
2023-03-24T00:46:02.015Z,23.85
2023-03-24T00:48:30.981Z,24.77
2023-03-24T00:51:02.782Z,20.80
2023-03-24T00:53:30.458Z,20.88
2023-03-24T00:55:58.686Z,21.17
2023-03-24T00:58:26.339Z,20.67
2023-03-24T01:00:57.326Z,20.58
2023-03-24T01:03:27.736Z,20.52
2023-03-24T01:06:02.941Z,20.67
2023-03-24T01:08:30.978Z,20.67
2023-03-24T01:11:01.296Z,21.23
2023-03-24T01:13:30.058Z,23.98
2023-03-24T01:15:58.571Z,24.77
2023-03-24T01:18:27.763Z,24.75
2023-03-24T01:20:55.292Z,27.02
2023-03-24T01:23:26.125Z,26.13
2023-03-24T01:25:54.448Z,25.52
2023-03-24T01:28:25.099Z,26.52
2023-03-24T01:30:54.287Z,30.35
2023-03-24T01:33:22.360Z,30.88
2023-03-24T01:35:50.144Z,29.75
2023-03-24T01:38:18.221Z,30.67
2023-03-24T01:40:47.511Z,29.30
2023-03-24T01:43:27.918Z,29.90
2023-03-24T01:46:08.192Z,28.05
2023-03-24T01:48:41.803Z,27.75
2023-03-24T01:51:22.757Z,29.17
2023-03-24T01:54:02.833Z,30.42
2023-03-24T01:56:34.642Z,29.50
2023-03-24T01:59:10.537Z,29.88
2023-03-24T02:01:44.929Z,30.67
2023-03-24T02:04:38.852Z,28.23
2023-03-24T02:07:38.263Z,29.98
2023-03-24T02:10:13.838Z,29.60
2023-03-24T02:12:44.658Z,29.67
2023-03-24T02:15:14.840Z,30.10
2023-03-24T02:17:57.280Z,28.70
2023-03-24T02:20:50.813Z,28.05
2023-03-24T02:23:31.236Z,29.70
2023-03-24T02:26:19.513Z,28.88
2023-03-24T02:29:18.263Z,29.30
2023-03-24T02:32:00.742Z,29.75
2023-03-24T02:35:14.273Z,29.35
2023-03-24T02:37:47.870Z,30.52
2023-03-24T02:43:14.258Z,30.17
2023-03-24T02:46:20.177Z,30.90
2023-03-24T02:49:07.650Z,28.52
2023-03-24T02:51:56.182Z,27.75
2023-03-24T02:54:54.619Z,27.42
2023-03-24T02:57:29.941Z,26.50
2023-03-24T03:00:33.188Z,26.65
2023-03-24T03:03:39.598Z,26.13
2023-03-24T03:06:13.682Z,25.05
2023-03-24T03:08:43.055Z,25.50
2023-03-24T03:11:14.600Z,24.10
2023-03-24T03:13:52.612Z,24.80
2023-03-24T03:16:34.880Z,24.75
2023-03-24T03:19:09.977Z,25.23
2023-03-24T03:21:43.492Z,26.05
2023-03-24T03:24:15.634Z,25.83
2023-03-24T03:26:47.380Z,27.08
2023-03-24T03:29:22.123Z,25.70
2023-03-24T03:31:59.279Z,27.42
2023-03-24T03:34:41.124Z,27.15
2023-03-24T03:37:11.624Z,27.85
2023-03-24T03:39:50.510Z,26.88
2023-03-24T03:42:19.142Z,26.73
2023-03-24T03:44:47.075Z,27.27
2023-03-24T03:47:15.832Z,27.08
2023-03-24T03:49:46.294Z,26.73
2023-03-24T03:52:14.660Z,26.63
2023-03-24T03:54:44.022Z,27.92
2023-03-24T03:57:13.520Z,27.45
2023-03-24T04:00:20.427Z,26.70
2023-03-24T04:03:42.163Z,25.98
2023-03-24T04:06:33.172Z,26.27
2023-03-24T04:09:13.027Z,24.80
2023-03-24T04:11:42.613Z,26.40
2023-03-24T04:14:41.238Z,25.35
2023-03-24T04:18:06.510Z,25.60
2023-03-24T04:21:03.201Z,26.17
2023-03-24T04:23:33.883Z,26.17
2023-03-24T04:26:06.874Z,26.35
2023-03-24T04:28:48.111Z,26.50
2023-03-24T04:31:23.539Z,26.90
2023-03-24T04:34:03.599Z,25.58
2023-03-24T04:37:02.850Z,26.25
2023-03-24T04:42:28.534Z,24.52
2023-03-24T04:44:57.725Z,24.55
2023-03-24T04:47:57.042Z,26.48
2023-03-24T04:50:40.548Z,26.40
2023-03-24T04:53:14.102Z,26.92
2023-03-24T04:55:51.175Z,27.77
2023-03-24T04:58:37.274Z,27.35
2023-03-24T05:01:06.131Z,26.88
2023-03-24T05:03:39.936Z,26.75
2023-03-24T05:06:08.446Z,26.00
2023-03-24T05:08:36.588Z,25.85
2023-03-24T05:11:04.324Z,25.45
2023-03-24T05:13:33.493Z,25.23
2023-03-24T05:16:03.102Z,24.60
2023-03-24T05:18:41.006Z,25.02
2023-03-24T05:21:09.332Z,25.10
2023-03-24T05:23:37.353Z,25.00
2023-03-24T05:26:05.953Z,27.52
2023-03-24T05:28:44.350Z,26.52
2023-03-24T05:31:13.412Z,26.17
2023-03-24T05:33:49.174Z,27.65
2023-03-24T05:36:19.939Z,27.25
2023-03-24T05:38:54.844Z,27.30
2023-03-24T05:41:24.882Z,27.45
2023-03-24T05:44:08.406Z,26.52
2023-03-24T05:46:36.070Z,27.67
2023-03-24T05:49:04.594Z,27.73
2023-03-24T05:51:35.445Z,28.58
2023-03-24T05:54:06.362Z,29.25
2023-03-24T05:56:40.686Z,28.83
2023-03-24T05:59:27.295Z,30.00
2023-03-24T06:02:30.296Z,28.65
2023-03-24T06:05:08.323Z,29.55
2023-03-24T06:07:38.421Z,28.30
2023-03-24T06:10:10.070Z,28.65
2023-03-24T06:12:44.978Z,29.73
2023-03-24T06:15:17.476Z,30.25
2023-03-24T06:17:47.902Z,29.92
2023-03-24T06:20:26.044Z,32.30
2023-03-24T06:23:07.284Z,33.72
2023-03-24T06:25:55.673Z,34.17
2023-03-24T06:28:26.336Z,38.65
2023-03-24T06:30:58.905Z,39.92
2023-03-24T06:33:32.828Z,38.95
2023-03-24T06:36:01.908Z,41.10
2023-03-24T06:38:31.128Z,41.28
2023-03-24T06:41:03.982Z,43.35
2023-03-24T06:43:33.032Z,44.72
2023-03-24T06:46:01.072Z,42.72
2023-03-24T06:48:34.633Z,44.90
2023-03-24T06:51:07.602Z,47.78
2023-03-24T06:53:35.626Z,47.42
2023-03-24T06:56:03.802Z,47.47
2023-03-24T06:58:38.789Z,45.95
2023-03-24T07:01:08.726Z,46.47
2023-03-24T07:03:41.949Z,46.30
2023-03-24T07:06:29.847Z,44.60
2023-03-24T07:09:03.283Z,42.65
2023-03-24T07:11:31.782Z,44.55
2023-03-24T07:14:01.660Z,42.53
2023-03-24T07:16:31.283Z,41.20
2023-03-24T07:19:07.852Z,38.45
2023-03-24T07:21:38.198Z,39.70
2023-03-24T07:24:06.550Z,41.25
2023-03-24T07:26:42.689Z,40.58
2023-03-24T07:29:19.778Z,45.67
2023-03-24T07:32:01.195Z,43.95
2023-03-24T07:34:29.257Z,43.65
2023-03-24T07:36:56.843Z,43.90
2023-03-24T07:39:24.531Z,44.88
2023-03-24T07:41:52.054Z,45.13
2023-03-24T07:44:29.695Z,45.25
2023-03-24T07:47:01.381Z,44.53
2023-03-24T07:49:33.472Z,46.58
2023-03-24T07:52:07.126Z,45.10
2023-03-24T07:54:48.861Z,46.50
2023-03-24T07:57:43.850Z,46.33
2023-03-24T08:00:42.974Z,46.70
2023-03-24T08:03:28.140Z,47.15
2023-03-24T08:06:19.382Z,47.72
2023-03-24T08:08:56.904Z,49.42
2023-03-24T08:11:25.798Z,49.00
2023-03-24T08:13:53.388Z,50.65
2023-03-24T08:16:24.856Z,52.40
2023-03-24T08:18:53.312Z,51.65
2023-03-24T08:21:28.868Z,52.38
2023-03-24T08:37:28.101Z,49.00
2023-03-24T08:39:58.988Z,49.92
2023-03-24T08:42:26.778Z,49.60
2023-03-24T08:54:03.750Z,46.80
2023-03-24T08:56:31.447Z,45.78
2023-03-24T08:58:59.259Z,44.80
2023-03-24T09:01:27.555Z,42.83
2023-03-24T09:03:56.461Z,38.97
2023-03-24T09:15:34.920Z,37.65
2023-03-24T09:18:03.123Z,33.95
2023-03-24T09:20:31.155Z,36.85
2023-03-24T09:36:44.310Z,33.03
2023-03-24T09:44:10.580Z,32.20
2023-03-24T09:46:51.358Z,26.55
2023-03-24T09:58:31.514Z,21.02
2023-03-24T10:00:59.150Z,19.70
2023-03-24T10:03:28.308Z,23.73
2023-03-24T10:15:37.749Z,19.75
2023-03-24T10:18:15.357Z,30.85
2023-03-24T10:25:23.026Z,12.15
2023-03-24T10:36:58.494Z,2.22
2023-03-24T10:40:19.432Z,2.50
2023-03-24T10:47:22.660Z,9.15
2023-03-24T10:49:57.108Z,13.65
2023-03-24T10:52:25.108Z,8.57
2023-03-24T11:04:07.870Z,2.75
2023-03-24T11:06:40.646Z,3.10
2023-03-24T11:09:21.332Z,3.50
2023-03-24T11:11:50.904Z,3.10
2023-03-24T11:14:27.468Z,2.35
2023-03-24T11:17:12.882Z,3.15
2023-03-24T11:19:49.975Z,4.22
2023-03-24T11:36:08.769Z,3.60
2023-03-24T11:47:42.841Z,5.13
2023-03-24T11:50:10.152Z,3.25
2023-03-24T11:52:55.399Z,2.40
2023-03-24T12:09:17.052Z,3.38
2023-03-24T12:21:05.073Z,3.67
2023-03-24T12:23:38.298Z,4.00
2023-03-24T12:26:26.042Z,4.05
2023-03-24T12:28:59.260Z,3.97
2023-03-24T12:31:28.897Z,3.97
2023-03-24T12:34:05.092Z,3.75
2023-03-24T12:36:57.540Z,4.40
2023-03-24T12:53:08.127Z,4.80
2023-03-24T13:04:47.896Z,4.03
2023-03-24T13:07:21.604Z,4.30
2023-03-24T13:10:14.910Z,3.72
2023-03-24T13:12:51.031Z,4.82
2023-03-24T13:15:24.825Z,4.47
2023-03-24T13:18:09.146Z,4.82
2023-03-24T13:20:54.963Z,5.68
2023-03-24T13:32:24.116Z,5.20
2023-03-24T13:35:25.576Z,6.00
2023-03-24T13:38:24.088Z,5.85
2023-03-24T13:40:54.198Z,6.35
2023-03-24T13:43:24.878Z,4.72
2023-03-24T13:46:00.253Z,5.28
2023-03-24T13:48:32.290Z,5.57
2023-03-24T13:51:02.056Z,5.68
2023-03-24T13:53:34.123Z,6.75
2023-03-24T14:05:22.489Z,5.60
2023-03-24T14:21:34.584Z,6.20
2023-03-24T14:38:01.648Z,5.90
2023-03-24T14:43:42.041Z,7.50
2023-03-24T14:46:23.935Z,6.90
2023-03-24T14:49:04.159Z,6.75
2023-03-24T14:51:39.344Z,6.45
2023-03-24T15:00:57.952Z,6.05
2023-03-24T15:07:29.984Z,5.57
2023-03-24T15:10:23.023Z,5.00
2023-03-24T15:20:48.492Z,5.88
2023-03-24T15:29:43.846Z,4.88
2023-03-24T15:35:59.562Z,4.90
2023-03-24T15:39:07.175Z,4.88
2023-03-24T15:42:25.885Z,4.68
2023-03-24T15:44:54.724Z,4.60
2023-03-24T15:47:29.510Z,4.60
2023-03-24T15:49:59.350Z,4.80
2023-03-24T15:52:37.767Z,5.32
2023-03-24T15:55:24.231Z,35.10
2023-03-24T15:57:55.635Z,10.18
2023-03-24T16:00:40.443Z,5.15
2023-03-24T16:03:15.391Z,4.90
2023-03-24T16:05:48.488Z,4.80
2023-03-24T16:08:35.871Z,5.65
2023-03-24T16:11:08.076Z,6.43
2023-03-24T16:13:35.892Z,5.28
2023-03-24T16:16:15.203Z,5.65
2023-03-24T16:18:45.338Z,5.30
2023-03-24T16:21:28.073Z,5.03
2023-03-24T16:23:57.993Z,5.65
2023-03-24T16:26:28.959Z,5.20
2023-03-24T16:29:03.869Z,7.82
2023-03-24T16:31:35.110Z,8.13
2023-03-24T16:34:02.861Z,5.75
2023-03-24T16:36:30.438Z,6.25
2023-03-24T16:39:01.714Z,6.82
2023-03-24T16:41:30.451Z,6.72
2023-03-24T16:43:57.986Z,6.95
2023-03-24T16:46:28.221Z,6.65
2023-03-24T16:48:56.076Z,5.90
2023-03-24T16:51:23.954Z,10.27
2023-03-24T16:53:51.459Z,5.90
2023-03-24T16:56:20.994Z,6.57
2023-03-24T16:58:49.546Z,6.22
2023-03-24T17:01:27.001Z,7.10
2023-03-24T17:03:56.114Z,7.30
2023-03-24T17:06:24.966Z,8.57
2023-03-24T17:08:52.565Z,6.07
2023-03-24T17:11:27.558Z,6.28
2023-03-24T17:14:01.982Z,10.63
2023-03-24T17:16:29.699Z,5.33
2023-03-24T17:19:03.816Z,5.65
2023-03-24T17:21:34.534Z,6.22
2023-03-24T17:24:02.948Z,5.57
2023-03-24T17:26:31.871Z,5.40
2023-03-24T17:28:59.533Z,5.60
2023-03-24T17:31:27.064Z,5.55
2023-03-24T17:33:54.822Z,7.10
2023-03-24T17:36:22.367Z,5.50
2023-03-24T17:38:49.754Z,5.10
2023-03-24T17:41:17.324Z,5.07
2023-03-24T17:43:46.567Z,4.53
2023-03-24T17:46:14.348Z,5.13
2023-03-24T17:48:43.524Z,5.10
2023-03-24T17:51:12.534Z,4.45
2023-03-24T17:53:40.106Z,4.72
2023-03-24T17:56:07.885Z,4.93
2023-03-24T17:58:35.855Z,4.88
2023-03-24T18:01:07.708Z,4.85
2023-03-24T18:03:38.358Z,6.88
2023-03-24T18:06:08.091Z,6.70
2023-03-24T18:08:36.731Z,7.80
2023-03-24T18:11:07.032Z,7.25
2023-03-24T18:13:34.918Z,7.72
2023-03-24T18:16:13.217Z,9.27
2023-03-24T18:18:47.963Z,8.70
2023-03-24T18:21:15.535Z,7.63
2023-03-24T18:23:43.145Z,8.50
2023-03-24T18:26:10.822Z,14.15
2023-03-24T18:28:39.149Z,13.82
2023-03-24T18:31:10.478Z,12.77
2023-03-24T18:33:38.379Z,55.40
2023-03-24T18:36:06.277Z,72.15
2023-03-24T18:38:33.939Z,120.55
2023-03-24T18:41:08.191Z,90.30
2023-03-24T18:43:41.135Z,13.15
2023-03-24T18:49:18.441Z,6.93
2023-03-24T18:51:47.050Z,7.40
2023-03-24T18:54:16.060Z,6.45
2023-03-24T18:56:46.902Z,6.28
2023-03-24T18:59:17.217Z,6.78
2023-03-24T19:01:48.750Z,6.72
2023-03-24T19:04:17.719Z,5.53
2023-03-24T19:06:50.549Z,5.85
2023-03-24T19:09:22.885Z,5.65
2023-03-24T19:11:51.592Z,5.88
2023-03-24T19:18:30.446Z,5.40
2023-03-24T19:20:58.896Z,6.15
2023-03-24T19:23:26.809Z,5.60
2023-03-24T19:26:03.237Z,5.95
2023-03-24T19:28:44.192Z,6.00
2023-03-24T19:31:17.116Z,6.18
2023-03-24T19:33:48.926Z,6.05
2023-03-24T19:36:18.378Z,6.43
2023-03-24T19:38:46.092Z,7.25
2023-03-24T19:41:15.285Z,6.50
2023-03-24T19:43:43.110Z,6.22
2023-03-24T19:46:11.194Z,6.93
2023-03-24T19:48:39.020Z,6.07
2023-03-24T19:51:07.711Z,6.68
2023-03-24T19:53:35.613Z,6.47
2023-03-24T19:56:29.787Z,6.40
2023-03-24T19:59:04.429Z,6.22
2023-03-24T20:01:46.588Z,6.47
2023-03-24T20:04:21.367Z,6.45
2023-03-24T20:06:48.962Z,6.55
2023-03-24T20:09:16.781Z,6.57
2023-03-24T20:11:44.356Z,5.90
2023-03-24T20:14:23.359Z,6.15
2023-03-24T20:23:00.511Z,7.38
2023-03-24T20:25:32.075Z,8.02
2023-03-24T20:28:04.481Z,9.77
2023-03-24T20:31:16.233Z,8.82
2023-03-24T20:33:46.764Z,7.35
2023-03-24T20:36:15.847Z,8.25
2023-03-24T20:38:46.422Z,6.80
2023-03-24T20:41:35.854Z,7.13
2023-03-24T20:44:04.145Z,6.97
2023-03-24T20:47:01.489Z,7.03
2023-03-24T20:50:07.854Z,7.05
2023-03-24T20:53:02.311Z,7.53
2023-03-24T20:58:32.811Z,7.40
2023-03-24T21:01:09.163Z,7.35
2023-03-24T21:03:39.024Z,6.60
2023-03-24T21:06:19.564Z,6.50
2023-03-24T21:12:34.715Z,7.00
2023-03-24T21:15:27.781Z,6.90
2023-03-24T21:18:06.860Z,7.28
2023-03-24T21:20:57.154Z,6.50
2023-03-24T21:23:25.646Z,7.13
2023-03-24T21:25:53.371Z,8.38
2023-03-24T21:28:21.155Z,6.47
2023-03-24T21:30:48.786Z,6.10
2023-03-24T21:33:16.802Z,5.90
2023-03-24T21:35:44.319Z,5.53
2023-03-24T21:38:13.131Z,6.40
2023-03-24T21:40:40.841Z,6.35
2023-03-24T21:43:10.844Z,6.63
2023-03-24T21:45:38.501Z,6.43
2023-03-24T21:48:07.240Z,6.78
2023-03-24T21:50:40.287Z,6.60
2023-03-24T21:53:15.397Z,6.80
2023-03-24T21:58:23.887Z,6.57
2023-03-24T22:07:30.388Z,6.20
2023-03-24T22:11:22.611Z,6.03
2023-03-24T22:15:15.749Z,5.20
2023-03-24T22:23:05.839Z,3.58
2023-03-24T22:26:01.561Z,4.43
2023-03-24T22:28:29.667Z,3.47
2023-03-24T22:34:52.446Z,2.72
2023-03-24T22:37:27.548Z,2.80
2023-03-24T22:39:55.876Z,2.80
2023-03-24T22:42:28.875Z,3.00
2023-03-24T22:45:24.189Z,2.70
2023-03-24T22:48:29.130Z,4.28
2023-03-24T22:51:19.449Z,3.47
2023-03-24T22:55:09.097Z,4.25
2023-03-24T23:17:40.694Z,2.78
2023-03-24T23:20:33.215Z,3.35
2023-03-24T23:23:01.498Z,2.50
2023-03-24T23:25:32.983Z,3.10
2023-03-24T23:28:14.654Z,4.57
2023-03-24T23:30:57.792Z,3.58
2023-03-24T23:33:48.012Z,2.85
2023-03-24T23:36:36.486Z,2.67
2023-03-24T23:39:38.377Z,2.70
2023-03-24T23:42:36.288Z,2.50
2023-03-24T23:45:24.563Z,2.40
2023-03-24T23:48:00.773Z,2.47
2023-03-24T23:50:53.594Z,2.53
2023-03-24T23:53:36.229Z,2.17
2023-03-24T23:56:21.795Z,2.55
2023-03-24T23:58:49.677Z,2.53
